sensor_id;sensor_type;location;lat;lon;timestamp;pressure;altitude;pressure_sealevel;temperature;humidity
40117;BME280;25829;50.228;18.936;2023-07-24T00:00:16;97944.94;;;21.52;45.94
40117;BME280;25829;50.228;18.936;2023-07-24T00:03:16;97936.09;;;21.51;46.04
40117;BME280;25829;50.228;18.936;2023-07-24T00:06:17;97944.06;;;21.56;46.07
40117;BME280;25829;50.228;18.936;2023-07-24T00:09:18;97945.66;;;21.57;46.33
40117;BME280;25829;50.228;18.936;2023-07-24T00:12:19;97948.34;;;21.57;46.68
40117;BME280;25829;50.228;18.936;2023-07-24T00:15:19;97958.06;;;21.53;46.95
40117;BME280;25829;50.228;18.936;2023-07-24T00:18:20;97980.56;;;21.38;48.03
40117;BME280;25829;50.228;18.936;2023-07-24T00:21:21;97987.22;;;21.22;48.08
40117;BME280;25829;50.228;18.936;2023-07-24T00:24:22;97989.50;;;21.10;48.37
40117;BME280;25829;50.228;18.936;2023-07-24T00:27:23;97984.19;;;21.05;48.32
40117;BME280;25829;50.228;18.936;2023-07-24T00:30:35;97984.50;;;21.03;48.64
40117;BME280;25829;50.228;18.936;2023-07-24T00:33:36;97980.13;;;21.07;48.40
40117;BME280;25829;50.228;18.936;2023-07-24T00:36:38;97978.47;;;21.11;48.57
40117;BME280;25829;50.228;18.936;2023-07-24T00:39:40;97963.41;;;21.15;48.64
40117;BME280;25829;50.228;18.936;2023-07-24T00:42:46;97971.69;;;21.19;48.98
40117;BME280;25829;50.228;18.936;2023-07-24T00:45:48;97965.75;;;21.22;48.80
40117;BME280;25829;50.228;18.936;2023-07-24T00:48:50;97964.91;;;21.27;48.95
40117;BME280;25829;50.228;18.936;2023-07-24T00:51:51;97955.47;;;21.29;48.84
40117;BME280;25829;50.228;18.936;2023-07-24T00:54:53;97962.44;;;21.30;49.06
40117;BME280;25829;50.228;18.936;2023-07-24T00:57:55;97958.97;;;21.30;49.23
40117;BME280;25829;50.228;18.936;2023-07-24T01:00:56;97955.75;;;21.28;49.36
40117;BME280;25829;50.228;18.936;2023-07-24T01:03:57;97960.34;;;21.27;49.37
40117;BME280;25829;50.228;18.936;2023-07-24T01:06:59;97957.34;;;21.29;49.65
40117;BME280;25829;50.228;18.936;2023-07-24T01:10:00;97960.81;;;21.29;49.71
40117;BME280;25829;50.228;18.936;2023-07-24T01:13:32;97949.59;;;21.27;50.57
40117;BME280;25829;50.228;18.936;2023-07-24T01:16:39;97957.47;;;21.18;49.94
40117;BME280;25829;50.228;18.936;2023-07-24T01:19:47;97963.41;;;21.15;50.29
40117;BME280;25829;50.228;18.936;2023-07-24T01:26:03;97956.97;;;21.16;50.58
40117;BME280;25829;50.228;18.936;2023-07-24T01:29:04;97962.91;;;21.13;50.62
40117;BME280;25829;50.228;18.936;2023-07-24T01:32:05;97954.63;;;21.10;50.63
40117;BME280;25829;50.228;18.936;2023-07-24T01:35:06;97944.47;;;21.07;50.69
40117;BME280;25829;50.228;18.936;2023-07-24T01:38:07;97953.41;;;21.02;50.94
40117;BME280;25829;50.228;18.936;2023-07-24T01:41:08;97957.16;;;21.01;50.91
40117;BME280;25829;50.228;18.936;2023-07-24T01:44:12;97951.63;;;20.92;51.46
40117;BME280;25829;50.228;18.936;2023-07-24T01:47:13;97953.44;;;20.78;52.01
40117;BME280;25829;50.228;18.936;2023-07-24T01:50:14;97950.63;;;20.64;52.33
40117;BME280;25829;50.228;18.936;2023-07-24T01:53:14;97942.47;;;20.50;52.65
40117;BME280;25829;50.228;18.936;2023-07-24T01:56:15;97934.56;;;20.35;53.11
40117;BME280;25829;50.228;18.936;2023-07-24T01:59:16;97942.44;;;20.26;53.39
40117;BME280;25829;50.228;18.936;2023-07-24T02:02:17;97933.88;;;20.24;53.50
40117;BME280;25829;50.228;18.936;2023-07-24T02:05:18;97926.41;;;20.21;53.85
40117;BME280;25829;50.228;18.936;2023-07-24T02:08:18;97915.75;;;20.16;54.01
40117;BME280;25829;50.228;18.936;2023-07-24T02:11:19;97918.75;;;20.10;53.74
40117;BME280;25829;50.228;18.936;2023-07-24T02:17:21;97906.69;;;19.83;54.65
40117;BME280;25829;50.228;18.936;2023-07-24T02:20:23;97910.28;;;19.68;55.10
40117;BME280;25829;50.228;18.936;2023-07-24T02:23:24;97915.72;;;19.53;55.59
40117;BME280;25829;50.228;18.936;2023-07-24T02:26:25;97914.75;;;19.39;55.89
40117;BME280;25829;50.228;18.936;2023-07-24T02:29:26;97902.59;;;19.22;56.51
40117;BME280;25829;50.228;18.936;2023-07-24T02:32:27;97905.88;;;19.04;56.86
40117;BME280;25829;50.228;18.936;2023-07-24T02:35:28;97903.56;;;18.87;57.17
40117;BME280;25829;50.228;18.936;2023-07-24T02:38:29;97908.63;;;18.83;57.21
40117;BME280;25829;50.228;18.936;2023-07-24T02:41:29;97908.13;;;18.81;57.44
40117;BME280;25829;50.228;18.936;2023-07-24T02:44:34;97914.53;;;18.80;57.45
40117;BME280;25829;50.228;18.936;2023-07-24T02:47:36;97908.13;;;18.81;57.35
40117;BME280;25829;50.228;18.936;2023-07-24T02:50:39;97907.31;;;18.81;57.42
40117;BME280;25829;50.228;18.936;2023-07-24T02:53:39;97910.28;;;18.84;57.71
40117;BME280;25829;50.228;18.936;2023-07-24T02:56:40;97913.19;;;18.83;57.68
40117;BME280;25829;50.228;18.936;2023-07-24T02:59:41;97914.84;;;18.74;57.76
40117;BME280;25829;50.228;18.936;2023-07-24T03:02:42;97908.47;;;18.64;58.48
40117;BME280;25829;50.228;18.936;2023-07-24T03:05:43;97906.38;;;18.51;58.65
40117;BME280;25829;50.228;18.936;2023-07-24T03:08:43;97905.06;;;18.38;59.10
40117;BME280;25829;50.228;18.936;2023-07-24T03:11:44;97913.91;;;18.29;59.51
40117;BME280;25829;50.228;18.936;2023-07-24T03:14:46;97911.00;;;18.25;59.60
40117;BME280;25829;50.228;18.936;2023-07-24T03:17:47;97918.72;;;18.27;59.67
40117;BME280;25829;50.228;18.936;2023-07-24T03:20:48;97928.06;;;18.29;59.40
40117;BME280;25829;50.228;18.936;2023-07-24T03:23:49;97917.94;;;18.26;59.93
40117;BME280;25829;50.228;18.936;2023-07-24T03:26:49;97918.72;;;18.27;59.78
40117;BME280;25829;50.228;18.936;2023-07-24T03:29:50;97921.13;;;18.28;59.89
40117;BME280;25829;50.228;18.936;2023-07-24T03:32:51;97908.84;;;18.27;60.00
40117;BME280;25829;50.228;18.936;2023-07-24T03:35:52;97911.25;;;18.29;60.13
40117;BME280;25829;50.228;18.936;2023-07-24T03:38:52;97910.16;;;18.30;60.45
40117;BME280;25829;50.228;18.936;2023-07-24T03:41:53;97912.59;;;18.26;60.68
40117;BME280;25829;50.228;18.936;2023-07-24T03:44:54;97919.53;;;18.22;60.87
40117;BME280;25829;50.228;18.936;2023-07-24T03:47:55;97923.81;;;18.18;61.13
40117;BME280;25829;50.228;18.936;2023-07-24T03:51:00;97921.94;;;18.13;61.67
40117;BME280;25829;50.228;18.936;2023-07-24T03:54:01;97924.63;;;18.13;61.61
40117;BME280;25829;50.228;18.936;2023-07-24T03:57:01;97920.63;;;18.11;61.72
40117;BME280;25829;50.228;18.936;2023-07-24T04:00:02;97922.47;;;18.10;61.99
40117;BME280;25829;50.228;18.936;2023-07-24T04:03:12;97924.63;;;18.08;62.22
40117;BME280;25829;50.228;18.936;2023-07-24T04:06:13;97926.50;;;18.13;62.40
40117;BME280;25829;50.228;18.936;2023-07-24T04:09:14;97922.75;;;18.19;62.55
40117;BME280;25829;50.228;18.936;2023-07-24T04:12:17;97926.19;;;18.30;62.87
40117;BME280;25829;50.228;18.936;2023-07-24T04:15:18;97924.03;;;18.42;63.16
40117;BME280;25829;50.228;18.936;2023-07-24T04:18:19;97927.44;;;18.58;63.53
40117;BME280;25829;50.228;18.936;2023-07-24T04:21:19;97929.00;;;18.74;63.80
40117;BME280;25829;50.228;18.936;2023-07-24T04:24:20;97922.81;;;18.94;63.87
40117;BME280;25829;50.228;18.936;2023-07-24T04:27:21;97919.75;;;19.11;64.04
40117;BME280;25829;50.228;18.936;2023-07-24T04:30:22;97915.91;;;19.27;63.88
40117;BME280;25829;50.228;18.936;2023-07-24T04:33:26;97916.31;;;19.45;64.09
40117;BME280;25829;50.228;18.936;2023-07-24T04:36:27;97918.31;;;19.63;64.08
40117;BME280;25829;50.228;18.936;2023-07-24T04:39:28;97917.16;;;19.79;64.14
40117;BME280;25829;50.228;18.936;2023-07-24T04:42:29;97916.75;;;19.96;63.59
40117;BME280;25829;50.228;18.936;2023-07-24T04:45:29;97912.84;;;20.13;63.54
40117;BME280;25829;50.228;18.936;2023-07-24T04:48:30;97912.69;;;20.28;63.63
40117;BME280;25829;50.228;18.936;2023-07-24T04:51:31;97918.16;;;20.42;63.60
40117;BME280;25829;50.228;18.936;2023-07-24T05:07:50;97912.00;;;20.89;62.55
40117;BME280;25829;50.228;18.936;2023-07-24T05:10:57;97923.94;;;20.97;63.14
40117;BME280;25829;50.228;18.936;2023-07-24T05:13:59;97917.44;;;21.03;62.07
40117;BME280;25829;50.228;18.936;2023-07-24T05:16:59;97921.09;;;21.12;62.11
40117;BME280;25829;50.228;18.936;2023-07-24T05:20:00;97923.41;;;21.19;61.78
40117;BME280;25829;50.228;18.936;2023-07-24T05:23:01;97935.09;;;21.28;61.62
40117;BME280;25829;50.228;18.936;2023-07-24T05:26:03;97933.94;;;21.34;61.57
40117;BME280;25829;50.228;18.936;2023-07-24T05:29:03;97929.78;;;21.42;61.41
40117;BME280;25829;50.228;18.936;2023-07-24T05:32:05;97927.84;;;21.48;61.39
40117;BME280;25829;50.228;18.936;2023-07-24T05:35:06;97930.94;;;21.55;61.38
40117;BME280;25829;50.228;18.936;2023-07-24T05:38:07;97920.91;;;21.60;60.99
40117;BME280;25829;50.228;18.936;2023-07-24T05:41:08;97914.69;;;21.65;61.13
40117;BME280;25829;50.228;18.936;2023-07-24T05:44:08;97922.38;;;21.72;61.00
40117;BME280;25829;50.228;18.936;2023-07-24T05:47:11;97923.84;;;21.78;60.84
40117;BME280;25829;50.228;18.936;2023-07-24T05:50:11;97921.59;;;21.85;60.64
40117;BME280;25829;50.228;18.936;2023-07-24T05:53:14;97945.13;;;21.93;60.51
40117;BME280;25829;50.228;18.936;2023-07-24T06:00:51;97943.06;;;22.04;60.26
40117;BME280;25829;50.228;18.936;2023-07-24T06:03:52;97935.00;;;22.04;60.36
40117;BME280;25829;50.228;18.936;2023-07-24T06:06:53;97939.41;;;22.13;60.45
40117;BME280;25829;50.228;18.936;2023-07-24T06:09:53;97934.94;;;22.23;60.42
40117;BME280;25829;50.228;18.936;2023-07-24T06:12:54;97932.97;;;22.28;59.97
40117;BME280;25829;50.228;18.936;2023-07-24T06:15:55;97936.63;;;22.32;59.90
40117;BME280;25829;50.228;18.936;2023-07-24T06:18:56;97940.63;;;22.35;59.81
40117;BME280;25829;50.228;18.936;2023-07-24T06:21:56;97937.84;;;22.40;59.14
40117;BME280;25829;50.228;18.936;2023-07-24T06:24:57;97932.84;;;22.47;59.48
40117;BME280;25829;50.228;18.936;2023-07-24T06:27:58;97925.22;;;22.54;59.21
40117;BME280;25829;50.228;18.936;2023-07-24T06:30:59;97923.44;;;22.63;58.83
40117;BME280;25829;50.228;18.936;2023-07-24T06:33:59;97925.63;;;22.75;58.57
40117;BME280;25829;50.228;18.936;2023-07-24T06:37:01;97911.75;;;22.82;58.23
40117;BME280;25829;50.228;18.936;2023-07-24T06:40:02;97922.94;;;22.89;57.75
40117;BME280;25829;50.228;18.936;2023-07-24T06:43:03;97918.22;;;22.95;57.76
40117;BME280;25829;50.228;18.936;2023-07-24T06:46:04;97908.34;;;23.04;57.33
40117;BME280;25829;50.228;18.936;2023-07-24T06:49:05;97908.13;;;23.14;57.42
40117;BME280;25829;50.228;18.936;2023-07-24T06:52:05;97909.28;;;23.22;56.79
40117;BME280;25829;50.228;18.936;2023-07-24T06:58:11;97899.91;;;23.33;56.16
40117;BME280;25829;50.228;18.936;2023-07-24T07:01:11;97905.81;;;23.35;55.96
40117;BME280;25829;50.228;18.936;2023-07-24T07:04:12;97906.78;;;23.39;56.01
40117;BME280;25829;50.228;18.936;2023-07-24T07:07:13;97895.09;;;23.44;56.01
40117;BME280;25829;50.228;18.936;2023-07-24T07:10:14;97891.50;;;23.48;56.07
40117;BME280;25829;50.228;18.936;2023-07-24T07:13:17;97891.25;;;23.58;55.82
40117;BME280;25829;50.228;18.936;2023-07-24T07:16:18;97886.41;;;23.69;54.90
40117;BME280;25829;50.228;18.936;2023-07-24T07:19:19;97881.72;;;23.83;55.02
40117;BME280;25829;50.228;18.936;2023-07-24T07:22:20;97885.34;;;24.01;54.71
40117;BME280;25829;50.228;18.936;2023-07-24T07:25:21;97886.22;;;24.19;54.12
40117;BME280;25829;50.228;18.936;2023-07-24T07:28:21;97890.38;;;24.34;53.29
40117;BME280;25829;50.228;18.936;2023-07-24T07:31:22;97881.72;;;24.46;52.60
40117;BME280;25829;50.228;18.936;2023-07-24T07:34:23;97887.44;;;24.62;52.35
40117;BME280;25829;50.228;18.936;2023-07-24T07:37:24;97885.94;;;24.78;51.83
40117;BME280;25829;50.228;18.936;2023-07-24T07:40:25;97876.59;;;24.93;51.76
40117;BME280;25829;50.228;18.936;2023-07-24T07:43:27;97878.34;;;25.15;51.64
40117;BME280;25829;50.228;18.936;2023-07-24T07:46:28;97875.06;;;25.35;51.48
40117;BME280;25829;50.228;18.936;2023-07-24T07:49:29;97875.81;;;25.44;50.43
40117;BME280;25829;50.228;18.936;2023-07-24T07:52:30;97869.19;;;25.42;49.24
40117;BME280;25829;50.228;18.936;2023-07-24T07:55:31;97870.44;;;25.36;48.94
40117;BME280;25829;50.228;18.936;2023-07-24T07:58:31;97871.06;;;25.33;49.21
40117;BME280;25829;50.228;18.936;2023-07-24T08:01:32;97864.09;;;25.32;49.20
40117;BME280;25829;50.228;18.936;2023-07-24T08:04:42;97852.19;;;25.33;49.25
40117;BME280;25829;50.228;18.936;2023-07-24T08:07:42;97851.84;;;25.43;49.54
40117;BME280;25829;50.228;18.936;2023-07-24T08:13:53;97874.50;;;25.77;47.58
40117;BME280;25829;50.228;18.936;2023-07-24T08:16:53;97861.28;;;25.92;47.16
40117;BME280;25829;50.228;18.936;2023-07-24T08:19:54;97868.56;;;26.01;46.13
40117;BME280;25829;50.228;18.936;2023-07-24T08:23:10;97866.69;;;26.01;45.87
40117;BME280;25829;50.228;18.936;2023-07-24T08:26:13;97866.19;;;25.99;46.04
40117;BME280;25829;50.228;18.936;2023-07-24T08:29:14;97859.84;;;25.95;46.31
40117;BME280;25829;50.228;18.936;2023-07-24T08:32:14;97841.44;;;25.88;45.67
40117;BME280;25829;50.228;18.936;2023-07-24T08:35:17;97840.78;;;25.91;46.15
40117;BME280;25829;50.228;18.936;2023-07-24T08:38:18;97846.41;;;26.16;44.96
40117;BME280;25829;50.228;18.936;2023-07-24T08:41:21;97840.78;;;26.59;44.41
40117;BME280;25829;50.228;18.936;2023-07-24T08:44:22;97836.34;;;26.84;43.50
40117;BME280;25829;50.228;18.936;2023-07-24T08:47:25;97829.31;;;26.83;43.07
40117;BME280;25829;50.228;18.936;2023-07-24T08:50:29;97831.44;;;26.78;43.10
40117;BME280;25829;50.228;18.936;2023-07-24T08:53:30;97844.34;;;26.81;42.95
40117;BME280;25829;50.228;18.936;2023-07-24T08:56:38;97826.13;;;27.44;42.33
40117;BME280;25829;50.228;18.936;2023-07-24T08:59:42;97822.81;;;28.29;42.23
40117;BME280;25829;50.228;18.936;2023-07-24T09:02:43;97824.34;;;29.08;41.63
40117;BME280;25829;50.228;18.936;2023-07-24T09:05:47;97832.00;;;29.46;38.15
40117;BME280;25829;50.228;18.936;2023-07-24T09:08:48;97830.34;;;29.57;38.90
40117;BME280;25829;50.228;18.936;2023-07-24T09:12:18;97824.91;;;30.01;36.57
40117;BME280;25829;50.228;18.936;2023-07-24T09:15:27;97830.91;;;30.42;36.14
40117;BME280;25829;50.228;18.936;2023-07-24T09:18:41;97810.28;;;30.96;35.91
40117;BME280;25829;50.228;18.936;2023-07-24T09:21:43;97809.22;;;31.39;38.08
40117;BME280;25829;50.228;18.936;2023-07-24T09:24:52;97810.72;;;32.02;36.18
40117;BME280;25829;50.228;18.936;2023-07-24T09:27:55;97807.13;;;32.47;36.71
40117;BME280;25829;50.228;18.936;2023-07-24T09:30:58;97804.13;;;32.86;35.65
40117;BME280;25829;50.228;18.936;2023-07-24T09:34:17;97800.94;;;33.11;33.10
40117;BME280;25829;50.228;18.936;2023-07-24T09:37:27;97797.09;;;33.15;33.15
40117;BME280;25829;50.228;18.936;2023-07-24T09:40:43;97792.19;;;33.32;33.82
40117;BME280;25829;50.228;18.936;2023-07-24T09:43:58;97784.31;;;33.60;31.16
40117;BME280;25829;50.228;18.936;2023-07-24T09:47:02;97785.84;;;33.61;32.20
40117;BME280;25829;50.228;18.936;2023-07-24T09:50:07;97782.50;;;33.41;33.71
40117;BME280;25829;50.228;18.936;2023-07-24T09:54:01;97777.56;;;33.51;34.61
40117;BME280;25829;50.228;18.936;2023-07-24T09:56:38;97785.97;;;33.76;34.56
40117;BME280;25829;50.228;18.936;2023-07-24T09:59:40;97783.47;;;34.01;34.60
40117;BME280;25829;50.228;18.936;2023-07-24T10:02:47;97790.56;;;34.05;34.29
40117;BME280;25829;50.228;18.936;2023-07-24T10:05:48;97780.59;;;33.86;34.69
40117;BME280;25829;50.228;18.936;2023-07-24T10:08:51;97781.44;;;33.50;34.37
40117;BME280;25829;50.228;18.936;2023-07-24T10:11:52;97766.97;;;33.08;34.63
40117;BME280;25829;50.228;18.936;2023-07-24T10:14:54;97770.75;;;32.66;35.18
40117;BME280;25829;50.228;18.936;2023-07-24T10:18:06;97760.47;;;32.29;33.63
40117;BME280;25829;50.228;18.936;2023-07-24T10:21:09;97762.50;;;31.83;35.07
40117;BME280;25829;50.228;18.936;2023-07-24T10:24:10;97760.16;;;31.39;34.62
40117;BME280;25829;50.228;18.936;2023-07-24T10:27:11;97767.88;;;30.95;34.74
40117;BME280;25829;50.228;18.936;2023-07-24T10:30:12;97765.94;;;30.76;35.20
40117;BME280;25829;50.228;18.936;2023-07-24T10:33:29;97767.50;;;30.57;35.24
40117;BME280;25829;50.228;18.936;2023-07-24T10:36:34;97761.25;;;30.22;34.86
40117;BME280;25829;50.228;18.936;2023-07-24T10:39:41;97776.09;;;29.77;34.10
40117;BME280;25829;50.228;18.936;2023-07-24T10:42:42;97772.41;;;29.37;35.49
40117;BME280;25829;50.228;18.936;2023-07-24T10:45:50;97766.63;;;29.11;35.72
40117;BME280;25829;50.228;18.936;2023-07-24T10:48:51;97758.22;;;28.88;36.27
40117;BME280;25829;50.228;18.936;2023-07-24T10:52:08;97770.94;;;28.71;36.00
40117;BME280;25829;50.228;18.936;2023-07-24T10:58:46;97757.22;;;28.15;37.27
40117;BME280;25829;50.228;18.936;2023-07-24T11:09:58;97742.13;;;27.32;38.75
40117;BME280;25829;50.228;18.936;2023-07-24T11:12:58;97748.56;;;27.27;38.96
40117;BME280;25829;50.228;18.936;2023-07-24T11:16:04;97739.09;;;27.33;39.12
40117;BME280;25829;50.228;18.936;2023-07-24T11:19:05;97738.19;;;27.42;39.36
40117;BME280;25829;50.228;18.936;2023-07-24T11:22:07;97733.13;;;27.52;39.62
40117;BME280;25829;50.228;18.936;2023-07-24T11:25:08;97722.19;;;27.61;39.58
40117;BME280;25829;50.228;18.936;2023-07-24T11:28:11;97721.69;;;27.68;39.59
40117;BME280;25829;50.228;18.936;2023-07-24T11:31:12;97710.47;;;27.69;39.34
40117;BME280;25829;50.228;18.936;2023-07-24T11:34:12;97698.38;;;27.67;38.90
40117;BME280;25829;50.228;18.936;2023-07-24T11:37:14;97709.81;;;27.72;39.03
40117;BME280;25829;50.228;18.936;2023-07-24T11:40:15;97697.16;;;27.76;38.89
40117;BME280;25829;50.228;18.936;2023-07-24T11:43:23;97694.34;;;27.85;37.69
40117;BME280;25829;50.228;18.936;2023-07-24T11:46:25;97683.16;;;27.87;38.10
40117;BME280;25829;50.228;18.936;2023-07-24T11:49:28;97672.09;;;27.92;38.01
40117;BME280;25829;50.228;18.936;2023-07-24T11:52:39;97661.56;;;28.02;36.68
40117;BME280;25829;50.228;18.936;2023-07-24T11:55:40;97660.53;;;28.07;37.04
40117;BME280;25829;50.228;18.936;2023-07-24T11:58:41;97653.84;;;28.17;36.77
40117;BME280;25829;50.228;18.936;2023-07-24T12:01:46;97645.13;;;28.23;36.36
40117;BME280;25829;50.228;18.936;2023-07-24T12:04:55;97646.81;;;28.28;36.00
40117;BME280;25829;50.228;18.936;2023-07-24T12:07:57;97643.44;;;28.31;35.95
40117;BME280;25829;50.228;18.936;2023-07-24T12:10:58;97638.78;;;28.32;35.71
40117;BME280;25829;50.228;18.936;2023-07-24T12:13:59;97642.75;;;28.34;35.75
40117;BME280;25829;50.228;18.936;2023-07-24T12:17:03;97632.41;;;28.40;35.68
40117;BME280;25829;50.228;18.936;2023-07-24T12:20:07;97624.94;;;28.49;35.54
40117;BME280;25829;50.228;18.936;2023-07-24T12:23:09;97624.00;;;28.57;35.63
40117;BME280;25829;50.228;18.936;2023-07-24T12:26:10;97609.31;;;28.58;35.44
40117;BME280;25829;50.228;18.936;2023-07-24T12:29:11;97602.19;;;28.53;36.10
40117;BME280;25829;50.228;18.936;2023-07-24T12:32:12;97604.91;;;28.53;36.10
40117;BME280;25829;50.228;18.936;2023-07-24T12:35:18;97590.31;;;28.58;35.84
40117;BME280;25829;50.228;18.936;2023-07-24T12:45:38;97592.84;;;28.67;34.81
40117;BME280;25829;50.228;18.936;2023-07-24T12:48:38;97585.94;;;28.69;35.75
40117;BME280;25829;50.228;18.936;2023-07-24T12:51:39;97565.78;;;28.70;35.94
40117;BME280;25829;50.228;18.936;2023-07-24T12:54:40;97562.75;;;28.72;35.78
40117;BME280;25829;50.228;18.936;2023-07-24T12:57:41;97549.69;;;28.77;36.36
40117;BME280;25829;50.228;18.936;2023-07-24T13:00:41;97530.78;;;28.81;36.17
40117;BME280;25829;50.228;18.936;2023-07-24T13:03:42;97531.25;;;28.83;36.20
40117;BME280;25829;50.228;18.936;2023-07-24T13:06:43;97521.44;;;28.79;35.79
40117;BME280;25829;50.228;18.936;2023-07-24T13:09:47;97523.78;;;28.80;35.81
40117;BME280;25829;50.228;18.936;2023-07-24T13:12:48;97516.91;;;28.83;36.35
40117;BME280;25829;50.228;18.936;2023-07-24T13:15:49;97506.13;;;28.86;36.46
40117;BME280;25829;50.228;18.936;2023-07-24T13:18:52;97509.63;;;28.87;35.93
40117;BME280;25829;50.228;18.936;2023-07-24T13:21:56;97512.69;;;28.85;36.28
40117;BME280;25829;50.228;18.936;2023-07-24T13:25:00;97496.41;;;28.85;36.06
40117;BME280;25829;50.228;18.936;2023-07-24T13:28:01;97504.56;;;28.85;36.39
40117;BME280;25829;50.228;18.936;2023-07-24T13:31:18;97489.56;;;28.91;36.67
40117;BME280;25829;50.228;18.936;2023-07-24T13:34:20;97485.28;;;28.90;36.29
40117;BME280;25829;50.228;18.936;2023-07-24T13:41:25;97475.91;;;28.88;36.44
40117;BME280;25829;50.228;18.936;2023-07-24T13:44:26;97474.78;;;28.89;36.41
40117;BME280;25829;50.228;18.936;2023-07-24T13:47:26;97452.28;;;28.88;36.69
40117;BME280;25829;50.228;18.936;2023-07-24T13:50:27;97448.34;;;28.86;36.52
40117;BME280;25829;50.228;18.936;2023-07-24T13:53:28;97447.56;;;28.85;36.63
40117;BME280;25829;50.228;18.936;2023-07-24T13:56:29;97431.34;;;28.89;36.88
40117;BME280;25829;50.228;18.936;2023-07-24T13:59:34;97424.84;;;28.93;36.71
40117;BME280;25829;50.228;18.936;2023-07-24T14:02:35;97421.44;;;28.96;36.28
40117;BME280;25829;50.228;18.936;2023-07-24T14:05:36;97412.13;;;28.97;36.76
40117;BME280;25829;50.228;18.936;2023-07-24T14:08:37;97410.56;;;28.96;36.93
40117;BME280;25829;50.228;18.936;2023-07-24T14:11:38;97411.34;;;28.97;36.98
40117;BME280;25829;50.228;18.936;2023-07-24T14:14:38;97397.78;;;28.97;36.65
40117;BME280;25829;50.228;18.936;2023-07-24T14:17:40;97399.63;;;28.93;37.05
40117;BME280;25829;50.228;18.936;2023-07-24T14:20:40;97403.06;;;28.90;36.62
40117;BME280;25829;50.228;18.936;2023-07-24T14:23:41;97394.81;;;28.86;36.80
40117;BME280;25829;50.228;18.936;2023-07-24T14:26:42;97395.16;;;28.85;37.05
40117;BME280;25829;50.228;18.936;2023-07-24T14:29:45;97399.28;;;28.79;37.14
40117;BME280;25829;50.228;18.936;2023-07-24T14:32:45;97392.81;;;28.67;37.41
40117;BME280;25829;50.228;18.936;2023-07-24T14:35:46;97378.66;;;28.58;37.67
40117;BME280;25829;50.228;18.936;2023-07-24T14:38:47;97381.22;;;28.51;37.86
40117;BME280;25829;50.228;18.936;2023-07-24T14:41:48;97372.53;;;28.45;37.86
40117;BME280;25829;50.228;18.936;2023-07-24T14:44:48;97365.72;;;28.36;37.99
40117;BME280;25829;50.228;18.936;2023-07-24T14:50:51;97346.94;;;28.27;38.20
40117;BME280;25829;50.228;18.936;2023-07-24T14:53:52;97344.34;;;28.18;38.28
40117;BME280;25829;50.228;18.936;2023-07-24T14:56:53;97336.75;;;28.08;38.24
40117;BME280;25829;50.228;18.936;2023-07-24T14:59:56;97330.03;;;28.02;38.29
40117;BME280;25829;50.228;18.936;2023-07-24T15:02:57;97320.59;;;27.96;38.54
40117;BME280;25829;50.228;18.936;2023-07-24T15:05:58;97315.88;;;27.93;38.70
40117;BME280;25829;50.228;18.936;2023-07-24T15:09:03;97313.84;;;27.90;38.85
40117;BME280;25829;50.228;18.936;2023-07-24T15:20:11;97317.44;;;27.78;40.28
40117;BME280;25829;50.228;18.936;2023-07-24T15:23:13;97379.78;;;27.66;40.83
40117;BME280;25829;50.228;18.936;2023-07-24T15:26:14;97378.31;;;27.40;41.08
40117;BME280;25829;50.228;18.936;2023-07-24T15:29:14;97380.56;;;27.10;41.11
40117;BME280;25829;50.228;18.936;2023-07-24T15:32:15;97390.63;;;26.85;41.90
40117;BME280;25829;50.228;18.936;2023-07-24T15:35:20;97384.41;;;26.48;43.65
40117;BME280;25829;50.228;18.936;2023-07-24T15:38:21;97362.75;;;25.99;44.33
40117;BME280;25829;50.228;18.936;2023-07-24T15:41:22;97327.28;;;25.55;45.72
40117;BME280;25829;50.228;18.936;2023-07-24T15:44:22;97327.97;;;25.10;47.09
40117;BME280;25829;50.228;18.936;2023-07-24T15:47:23;97377.19;;;24.86;47.91
40117;BME280;25829;50.228;18.936;2023-07-24T15:50:26;97391.59;;;24.60;48.70
40117;BME280;25829;50.228;18.936;2023-07-24T15:53:28;97370.44;;;24.41;49.56
40117;BME280;25829;50.228;18.936;2023-07-24T15:56:28;97382.75;;;24.21;49.36
40117;BME280;25829;50.228;18.936;2023-07-24T16:00:02;97381.47;;;24.19;52.35
40117;BME280;25829;50.228;18.936;2023-07-24T16:03:19;97407.19;;;24.08;52.01
40117;BME280;25829;50.228;18.936;2023-07-24T16:06:20;97413.25;;;23.87;51.41
40117;BME280;25829;50.228;18.936;2023-07-24T16:09:20;97410.41;;;23.75;52.38
40117;BME280;25829;50.228;18.936;2023-07-24T16:12:22;97404.72;;;23.76;53.18
40117;BME280;25829;50.228;18.936;2023-07-24T16:15:23;97396.63;;;23.76;54.02
40117;BME280;25829;50.228;18.936;2023-07-24T16:18:23;97379.22;;;23.65;54.21
40117;BME280;25829;50.228;18.936;2023-07-24T16:21:24;97372.88;;;23.61;55.00
40117;BME280;25829;50.228;18.936;2023-07-24T16:24:27;97343.25;;;23.70;55.33
40117;BME280;25829;50.228;18.936;2023-07-24T16:27:28;97343.56;;;23.68;55.24
40117;BME280;25829;50.228;18.936;2023-07-24T16:30:28;97352.13;;;23.70;55.74
40117;BME280;25829;50.228;18.936;2023-07-24T16:33:29;97329.31;;;23.68;55.27
40117;BME280;25829;50.228;18.936;2023-07-24T16:36:30;97338.84;;;23.56;54.46
40117;BME280;25829;50.228;18.936;2023-07-24T16:39:33;97350.25;;;23.53;54.33
40117;BME280;25829;50.228;18.936;2023-07-24T16:42:33;97370.38;;;23.56;54.53
40117;BME280;25829;50.228;18.936;2023-07-24T16:45:35;97395.03;;;23.58;54.83
40117;BME280;25829;50.228;18.936;2023-07-24T16:48:36;97398.22;;;23.60;55.44
40117;BME280;25829;50.228;18.936;2023-07-24T16:51:37;97423.09;;;23.57;56.31
40117;BME280;25829;50.228;18.936;2023-07-24T16:54:37;97423.88;;;23.40;57.68
40117;BME280;25829;50.228;18.936;2023-07-24T16:57:38;97430.00;;;23.15;59.87